Time;durP1;ratioP1;P1;durP2;ratioP2;P2;SDS_P1;SDS_P2;PMS_P1;PMS_P2;Temp;Humidity;BMP_temperature;BMP_pressure;BME280_temperature;BME280_humidity;BME280_pressure;Samples;Min_cycle;Max_cycle;Signal;HPM_P1;HPM_P2
2023/01/22 00:00:00;;;;;;;;;;;;;;;;;;7367121;19;784;-77
2023/01/22 00:02:29;;;;;;;;;;;;;;;;;;7366974;19;816;-76
2023/01/22 00:04:57;;;;;;;;;;;;;;;;;;7364616;19;1850;-77
2023/01/22 00:07:25;;;;;;;;;;;;;;;;;;7371303;19;808;-77
2023/01/22 00:09:53;;;;;;;;;;;;;;;;;;7379644;19;835;-77
2023/01/22 00:12:21;;;;;;;;;;;;;;;;;;7381168;19;1103;-77
2023/01/22 00:14:50;;;;;;;;;;;;;;;;;;7375165;19;1366;-77
2023/01/22 00:17:18;;;;;;;;;;;;;;;;;;7366184;19;836;-77
2023/01/22 00:19:46;;;;;;;;;;;;;;;;;;7366659;19;809;-77
2023/01/22 00:22:14;;;;;;;;;;;;;;;;;;7368381;19;1674;-77
2023/01/22 00:24:43;;;;;;;;;;;;;;;;;;7367523;19;1845;-77
2023/01/22 00:27:11;;;;;;;;;;;;;;;;;;7368294;19;799;-76
2023/01/22 00:29:39;;;;;;;;;;;;;;;;;;7364995;19;796;-77
2023/01/22 00:32:07;;;;;;;;;;;;;;;;;;7367281;19;776;-77
2023/01/22 00:34:36;;;;;;;;;;;;;;;;;;7363972;19;1310;-76
2023/01/22 00:37:04;;;;;;;;;;;;;;;;;;7367928;19;783;-76
2023/01/22 00:39:32;;;;;;;;;;;;;;;;;;7370766;19;1488;-76
2023/01/22 00:42:00;;;;;;;;;;;;;;;;;;7370713;19;879;-76
2023/01/22 00:44:28;;;;;;;;;;;;;;;;;;7363180;19;1893;-76
2023/01/22 00:46:57;;;;;;;;;;;;;;;;;;7364576;19;831;-76
2023/01/22 00:49:25;;;;;;;;;;;;;;;;;;7365613;19;981;-76
2023/01/22 00:51:53;;;;;;;;;;;;;;;;;;7366319;19;788;-76
2023/01/22 00:54:21;;;;;;;;;;;;;;;;;;7364980;19;1326;-76
2023/01/22 00:56:49;;;;;;;;;;;;;;;;;;7367489;19;797;-75
2023/01/22 00:59:17;;;;;;;;;;;;;;;;;;7369662;19;811;-76
2023/01/22 01:01:46;;;;;;;;;;;;;;;;;;7374086;19;788;-76
2023/01/22 01:04:14;;;;;;;;;;;;;;;;;;7369909;19;1837;-75
2023/01/22 01:06:43;;;;;;;;;;;;;;;;;;7371049;19;886;-75
2023/01/22 01:09:14;;;;;;;;;;;;;;;;;;7375291;19;1637;-75
2023/01/22 01:11:42;;;;;;;;;;;;;;;;;;7370076;19;793;-75
2023/01/22 01:14:10;;;;;;;;;;;;;;;;;;7370555;19;1346;-76
2023/01/22 01:16:38;;;;;;;;;;;;;;;;;;7370454;19;753;-75
2023/01/22 01:19:06;;;;;;;;;;;;;;;;;;7370996;19;831;-75
2023/01/22 01:21:34;;;;;;;;;;;;;;;;;;7372002;19;1865;-76
2023/01/22 01:24:03;;;;;;;;;;;;;;;;;;7369180;19;1845;-75
2023/01/22 01:26:32;;;;;;;;;;;;;;;;;;7370394;19;823;-74
2023/01/22 01:29:00;;;;;;;;;;;;;;;;;;7369483;19;942;-75
2023/01/22 01:31:30;;;;;;;;;;;;;;;;;;7370138;19;850;-76
2023/01/22 01:33:58;;;;;;;;;;;;;;;;;;7373348;19;1353;-75
2023/01/22 01:36:27;;;;;;;;;;;;;;;;;;7371513;19;800;-76
2023/01/22 01:38:55;;;;;;;;;;;;;;;;;;7370999;19;1523;-75
2023/01/22 01:41:23;;;;;;;;;;;;;;;;;;7371054;19;820;-75
2023/01/22 01:43:52;;;;;;;;;;;;;;;;;;7370104;19;1846;-76
2023/01/22 01:46:20;;;;;;;;;;;;;;;;;;7369785;19;804;-75
2023/01/22 01:48:48;;;;;;;;;;;;;;;;;;7369498;19;736;-75
2023/01/22 01:51:16;;;;;;;;;;;;;;;;;;7369780;19;803;-75
2023/01/22 01:53:44;;;;;;;;;;;;;;;;;;7370496;19;1295;-76
2023/01/22 01:56:12;;;;;;;;;;;;;;;;;;7371877;19;804;-75
2023/01/22 01:58:41;;;;;;;;;;;;;;;;;;7368534;19;777;-75
2023/01/22 02:01:09;;;;;;;;;;;;;;;;;;7368525;19;1781;-74
2023/01/22 02:03:38;;;;;;;;;;;;;;;;;;7374286;19;1813;-74
2023/01/22 02:06:06;;;;;;;;;;;;;;;;;;7370246;19;771;-74
2023/01/22 02:08:34;;;;;;;;;;;;;;;;;;7368832;19;1960;-74
2023/01/22 02:11:02;;;;;;;;;;;;;;;;;;7368717;19;1718;-75
2023/01/22 02:13:30;;;;;;;;;;;;;;;;;;7369243;19;1330;-75
2023/01/22 02:16:00;;;;;;;;;;;;;;;;;;7368981;19;742;-74
2023/01/22 02:18:28;;;;;;;;;;;;;;;;;;7369569;19;867;-76
2023/01/22 02:20:56;;;;;;;;;;;;;;;;;;7368427;19;827;-76
2023/01/22 02:23:24;;;;;;;;;;;;;;;;;;7369487;19;891;-75
2023/01/22 02:25:53;;;;;;;;;;;;;;;;;;7366095;19;1838;-75
2023/01/22 02:28:21;;;;;;;;;;;;;;;;;;7367850;19;832;-75
2023/01/22 02:30:50;;;;;;;;;;;;;;;;;;7368675;19;891;-75
2023/01/22 02:33:18;;;;;;;;;;;;;;;;;;7368025;19;832;-75
2023/01/22 02:35:46;;;;;;;;;;;;;;;;;;7366494;19;1321;-75
2023/01/22 02:38:15;;;;;;;;;;;;;;;;;;7369210;19;1726;-75
2023/01/22 02:40:47;;;;;;;;;;;;;;;;;;7368098;19;768;-74
2023/01/22 02:43:18;;;;;;;;;;;;;;;;;;7367255;19;1028;-75
2023/01/22 02:45:46;;;;;;;;;;;;;;;;;;7364943;19;1838;-74
2023/01/22 02:48:14;;;;;;;;;;;;;;;;;;7368818;19;1903;-74
2023/01/22 02:50:43;;;;;;;;;;;;;;;;;;7367705;19;839;-75
2023/01/22 02:53:12;;;;;;;;;;;;;;;;;;7367625;19;936;-75
2023/01/22 02:55:40;;;;;;;;;;;;;;;;;;7364737;19;1258;-75
2023/01/22 02:58:08;;;;;;;;;;;;;;;;;;7367122;19;874;-74
2023/01/22 03:00:37;;;;;;;;;;;;;;;;;;7367037;19;791;-75
2023/01/22 03:03:06;;;;;;;;;;;;;;;;;;7367419;19;871;-74
2023/01/22 03:05:34;;;;;;;;;;;;;;;;;;7363987;19;1857;-75
2023/01/22 03:08:05;;;;;;;;;;;;;;;;;;7367058;19;2187;-74
2023/01/22 03:10:33;;;;;;;;;;;;;;;;;;7367852;19;810;-75
2023/01/22 03:21:20;;;;;;;;;;;;;;;;;;7365992;19;697;-75
2023/01/22 03:23:48;;;;;;;;;;;;;;;;;;7365212;19;1310;-74
2023/01/22 03:26:18;;;;;;;;;;;;;;;;;;7366826;19;706;-75
2023/01/22 03:28:47;;;;;;;;;;;;;;;;;;7367402;19;817;-75
2023/01/22 03:31:15;;;;;;;;;;;;;;;;;;7367273;19;914;-74
2023/01/22 03:33:43;;;;;;;;;;;;;;;;;;7366734;19;1271;-75
2023/01/22 03:36:13;;;;;;;;;;;;;;;;;;7366490;19;834;-75
2023/01/22 03:38:45;;;;;;;;;;;;;;;;;;7367844;19;1574;-73
2023/01/22 03:41:17;;;;;;;;;;;;;;;;;;7366128;19;816;-73
2023/01/22 03:43:47;;;;;;;;;;;;;;;;;;7365401;19;1326;-74
2023/01/22 03:46:21;;;;;;;;;;;;;;;;;;7362716;19;1870;-74
2023/01/22 03:48:54;;;;;;;;;;;;;;;;;;7365340;19;715;-75
2023/01/22 03:51:22;;;;;;;;;;;;;;;;;;7365736;19;799;-74
2023/01/22 03:53:50;;;;;;;;;;;;;;;;;;7365226;19;1287;-74
2023/01/22 03:56:19;;;;;;;;;;;;;;;;;;7365083;19;783;-72
2023/01/22 03:58:47;;;;;;;;;;;;;;;;;;7366397;19;1885;-74
2023/01/22 04:01:15;;;;;;;;;;;;;;;;;;7365599;19;638;-74
2023/01/22 04:03:43;;;;;;;;;;;;;;;;;;7367337;19;1275;-74
2023/01/22 04:06:12;;;;;;;;;;;;;;;;;;7362943;19;1842;-74
2023/01/22 04:08:41;;;;;;;;;;;;;;;;;;7367311;19;1475;-74
2023/01/22 04:11:09;;;;;;;;;;;;;;;;;;7365197;19;788;-74
2023/01/22 04:13:38;;;;;;;;;;;;;;;;;;7364285;19;1271;-74
2023/01/22 04:16:06;;;;;;;;;;;;;;;;;;7365511;19;734;-74
2023/01/22 04:19:03;;;;;;;;;;;;;;;;;;7365062;19;1085;-74
2023/01/22 04:21:37;;;;;;;;;;;;;;;;;;7366159;19;708;-77
2023/01/22 04:24:08;;;;;;;;;;;;;;;;;;7363179;19;1328;-74
2023/01/22 04:26:36;;;;;;;;;;;;;;;;;;7363513;19;801;-74
2023/01/22 04:29:05;;;;;;;;;;;;;;;;;;7364024;19;800;-75
2023/01/22 04:31:33;;;;;;;;;;;;;;;;;;7371365;19;784;-75
2023/01/22 04:34:27;;;;;;;;;;;;;;;;;;7369516;19;1360;-73
2023/01/22 04:37:07;;;;;;;;;;;;;;;;;;7370693;19;782;-74
2023/01/22 04:39:36;;;;;;;;;;;;;;;;;;7373486;19;1975;-74
2023/01/22 04:42:04;;;;;;;;;;;;;;;;;;7370284;19;822;-74
2023/01/22 04:44:33;;;;;;;;;;;;;;;;;;7369500;19;1853;-74
2023/01/22 04:47:01;;;;;;;;;;;;;;;;;;7370248;19;799;-75
2023/01/22 04:49:30;;;;;;;;;;;;;;;;;;7370454;19;802;-75
2023/01/22 04:51:58;;;;;;;;;;;;;;;;;;7370736;19;843;-74
2023/01/22 04:54:27;;;;;;;;;;;;;;;;;;7369388;19;1299;-74
2023/01/22 04:56:56;;;;;;;;;;;;;;;;;;7370204;19;899;-74
2023/01/22 04:59:24;;;;;;;;;;;;;;;;;;7369500;19;989;-74
2023/01/22 05:01:52;;;;;;;;;;;;;;;;;;7369794;19;863;-74
2023/01/22 05:04:22;;;;;;;;;;;;;;;;;;7369137;19;1857;-74
2023/01/22 05:06:51;;;;;;;;;;;;;;;;;;7370397;19;955;-74
2023/01/22 05:09:19;;;;;;;;;;;;;;;;;;7372721;19;1846;-74
2023/01/22 05:11:53;;;;;;;;;;;;;;;;;;7369604;19;791;-75
2023/01/22 05:14:21;;;;;;;;;;;;;;;;;;7368400;19;1354;-74
2023/01/22 05:16:50;;;;;;;;;;;;;;;;;;7368236;19;826;-74
2023/01/22 05:19:18;;;;;;;;;;;;;;;;;;7369801;19;788;-75
2023/01/22 05:21:46;;;;;;;;;;;;;;;;;;7369448;19;855;-75
2023/01/22 05:24:17;;;;;;;;;;;;;;;;;;7368675;19;1397;-75
2023/01/22 05:26:46;;;;;;;;;;;;;;;;;;7367274;19;1837;-74
2023/01/22 05:29:34;;;;;;;;;;;;;;;;;;7369545;19;1152;-74
2023/01/22 05:32:19;;;;;;;;;;;;;;;;;;7369790;19;1470;-75
2023/01/22 05:34:54;;;;;;;;;;;;;;;;;;7367806;19;1396;-75
2023/01/22 05:37:22;;;;;;;;;;;;;;;;;;7367939;19;803;-75
2023/01/22 05:39:51;;;;;;;;;;;;;;;;;;7368533;19;915;-74
2023/01/22 05:42:20;;;;;;;;;;;;;;;;;;7367627;19;801;-75
2023/01/22 05:44:51;;;;;;;;;;;;;;;;;;7367767;19;1833;-75
2023/01/22 05:47:22;;;;;;;;;;;;;;;;;;7368009;19;736;-75
2023/01/22 05:50:19;;;;;;;;;;;;;;;;;;7368567;19;1169;-74
2023/01/22 05:52:48;;;;;;;;;;;;;;;;;;7370407;19;756;-75
2023/01/22 05:55:17;;;;;;;;;;;;;;;;;;7366291;19;1306;-76
2023/01/22 05:57:46;;;;;;;;;;;;;;;;;;7368117;19;792;-75
2023/01/22 06:00:16;;;;;;;;;;;;;;;;;;7369656;19;1874;-75
2023/01/22 06:02:47;;;;;;;;;;;;;;;;;;7370006;19;752;-75
2023/01/22 06:05:16;;;;;;;;;;;;;;;;;;7366453;19;1834;-75
2023/01/22 06:07:46;;;;;;;;;;;;;;;;;;7367493;19;1224;-75
2023/01/22 06:10:14;;;;;;;;;;;;;;;;;;7368209;19;808;-74
2023/01/22 06:12:47;;;;;;;;;;;;;;;;;;7368667;19;752;-75
2023/01/22 06:15:15;;;;;;;;;;;;;;;;;;7365949;19;1303;-75
2023/01/22 06:17:48;;;;;;;;;;;;;;;;;;7367740;19;559;-75
2023/01/22 06:20:16;;;;;;;;;;;;;;;;;;7368518;19;811;-75
2023/01/22 06:22:44;;;;;;;;;;;;;;;;;;7367688;19;796;-75
2023/01/22 06:25:12;;;;;;;;;;;;;;;;;;7365554;19;1884;-75
2023/01/22 06:28:10;;;;;;;;;;;;;;;;;;7369320;19;1485;-75
2023/01/22 06:30:39;;;;;;;;;;;;;;;;;;7373202;19;775;-75
2023/01/22 06:33:08;;;;;;;;;;;;;;;;;;7369408;19;1447;-74
2023/01/22 06:35:36;;;;;;;;;;;;;;;;;;7365146;19;1287;-76
2023/01/22 06:38:04;;;;;;;;;;;;;;;;;;7367798;19;804;-76
2023/01/22 06:40:35;;;;;;;;;;;;;;;;;;7367983;19;587;-74
2023/01/22 06:43:05;;;;;;;;;;;;;;;;;;7367784;19;804;-75
2023/01/22 06:45:33;;;;;;;;;;;;;;;;;;7368292;19;1854;-76
2023/01/22 06:48:06;;;;;;;;;;;;;;;;;;7367594;19;684;-77
2023/01/22 06:50:34;;;;;;;;;;;;;;;;;;7368397;19;835;-75
2023/01/22 06:53:03;;;;;;;;;;;;;;;;;;7367624;19;881;-76
2023/01/22 06:55:32;;;;;;;;;;;;;;;;;;7365557;19;1177;-77
2023/01/22 06:58:00;;;;;;;;;;;;;;;;;;7367702;19;819;-75
2023/01/22 07:00:28;;;;;;;;;;;;;;;;;;7368906;19;842;-77
2023/01/22 07:02:56;;;;;;;;;;;;;;;;;;7368017;19;867;-74
2023/01/22 07:05:26;;;;;;;;;;;;;;;;;;7366467;19;1849;-75
2023/01/22 07:07:54;;;;;;;;;;;;;;;;;;7368873;19;802;-75
2023/01/22 07:10:22;;;;;;;;;;;;;;;;;;7367276;19;2230;-74
2023/01/22 07:12:50;;;;;;;;;;;;;;;;;;7372482;19;1826;-74
2023/01/22 07:15:19;;;;;;;;;;;;;;;;;;7365900;19;1326;-75
2023/01/22 07:17:47;;;;;;;;;;;;;;;;;;7367965;19;775;-75
2023/01/22 07:20:15;;;;;;;;;;;;;;;;;;7368418;19;824;-75
2023/01/22 07:22:43;;;;;;;;;;;;;;;;;;7367100;19;1078;-75
2023/01/22 07:25:11;;;;;;;;;;;;;;;;;;7365668;19;1849;-74
2023/01/22 07:27:39;;;;;;;;;;;;;;;;;;7368263;19;870;-75
2023/01/22 07:30:08;;;;;;;;;;;;;;;;;;7368316;19;826;-75
2023/01/22 07:32:36;;;;;;;;;;;;;;;;;;7367266;19;886;-75
2023/01/22 07:35:04;;;;;;;;;;;;;;;;;;7366446;19;1255;-75
2023/01/22 07:37:33;;;;;;;;;;;;;;;;;;7370392;19;1744;-74
2023/01/22 07:40:01;;;;;;;;;;;;;;;;;;7367125;19;651;-75
2023/01/22 07:42:29;;;;;;;;;;;;;;;;;;7367335;19;776;-75
2023/01/22 07:44:57;;;;;;;;;;;;;;;;;;7365572;19;1254;-74
2023/01/22 07:47:25;;;;;;;;;;;;;;;;;;7364345;19;1853;-74
2023/01/22 07:49:53;;;;;;;;;;;;;;;;;;7371014;19;1859;-76
2023/01/22 07:52:22;;;;;;;;;;;;;;;;;;7365905;19;902;-74
2023/01/22 07:54:50;;;;;;;;;;;;;;;;;;7366584;19;1327;-75
2023/01/22 07:57:18;;;;;;;;;;;;;;;;;;7368423;19;857;-73
2023/01/22 07:59:46;;;;;;;;;;;;;;;;;;7365984;19;795;-75
2023/01/22 08:02:15;;;;;;;;;;;;;;;;;;7369033;19;1647;-74
2023/01/22 08:04:43;;;;;;;;;;;;;;;;;;7365493;19;1283;-75
2023/01/22 08:07:11;;;;;;;;;;;;;;;;;;7363184;19;1854;-74
2023/01/22 08:09:39;;;;;;;;;;;;;;;;;;7366051;19;867;-73
2023/01/22 08:12:07;;;;;;;;;;;;;;;;;;7366938;19;784;-73
2023/01/22 08:14:36;;;;;;;;;;;;;;;;;;7364531;19;1267;-73
2023/01/22 08:17:04;;;;;;;;;;;;;;;;;;7367316;19;855;-75
2023/01/22 08:19:32;;;;;;;;;;;;;;;;;;7370515;19;1876;-75
2023/01/22 08:22:00;;;;;;;;;;;;;;;;;;7366485;19;811;-74
2023/01/22 08:24:28;;;;;;;;;;;;;;;;;;7363405;19;1220;-73
2023/01/22 08:26:57;;;;;;;;;;;;;;;;;;7364281;19;1835;-73
2023/01/22 08:29:25;;;;;;;;;;;;;;;;;;7365074;19;882;-74
2023/01/22 08:31:54;;;;;;;;;;;;;;;;;;7365446;19;813;-73
2023/01/22 08:34:22;;;;;;;;;;;;;;;;;;7363312;19;1274;-73
2023/01/22 08:36:50;;;;;;;;;;;;;;;;;;7365966;19;804;-74
2023/01/22 08:39:19;;;;;;;;;;;;;;;;;;7365615;19;808;-73
2023/01/22 08:41:47;;;;;;;;;;;;;;;;;;7365680;19;843;-74
2023/01/22 08:44:15;;;;;;;;;;;;;;;;;;7363858;19;1318;-72
2023/01/22 08:46:43;;;;;;;;;;;;;;;;;;7364640;19;1852;-74
2023/01/22 08:49:11;;;;;;;;;;;;;;;;;;7365149;19;843;-73
2023/01/22 08:51:39;;;;;;;;;;;;;;;;;;7364313;19;800;-74
2023/01/22 08:54:07;;;;;;;;;;;;;;;;;;7364889;19;1286;-73
2023/01/22 08:56:36;;;;;;;;;;;;;;;;;;7364765;19;859;-73
2023/01/22 08:59:05;;;;;;;;;;;;;;;;;;7365237;19;817;-74
2023/01/22 09:01:33;;;;;;;;;;;;;;;;;;7365838;19;908;-74
2023/01/22 09:04:01;;;;;;;;;;;;;;;;;;7365046;19;1279;-74
2023/01/22 09:06:29;;;;;;;;;;;;;;;;;;7362452;19;1841;-73
2023/01/22 09:08:58;;;;;;;;;;;;;;;;;;7364529;19;843;-75
2023/01/22 09:11:26;;;;;;;;;;;;;;;;;;7363300;19;798;-73
2023/01/22 09:13:55;;;;;;;;;;;;;;;;;;7363004;19;1255;-74
2023/01/22 09:16:24;;;;;;;;;;;;;;;;;;7363667;19;881;-75
2023/01/22 09:18:52;;;;;;;;;;;;;;;;;;7370771;19;812;-74
2023/01/22 09:21:20;;;;;;;;;;;;;;;;;;7371147;19;824;-74
2023/01/22 09:23:48;;;;;;;;;;;;;;;;;;7370922;19;1248;-74
2023/01/22 09:26:16;;;;;;;;;;;;;;;;;;7370426;19;1849;-74
2023/01/22 09:28:44;;;;;;;;;;;;;;;;;;7370951;19;931;-74
2023/01/22 09:31:13;;;;;;;;;;;;;;;;;;7370914;19;792;-75
2023/01/22 09:33:41;;;;;;;;;;;;;;;;;;7371186;19;1354;-75
2023/01/22 09:36:09;;;;;;;;;;;;;;;;;;7370062;19;848;-74
2023/01/22 09:38:37;;;;;;;;;;;;;;;;;;7370919;19;839;-75
2023/01/22 09:41:05;;;;;;;;;;;;;;;;;;7369881;19;863;-75
2023/01/22 09:43:33;;;;;;;;;;;;;;;;;;7371155;19;1291;-74
2023/01/22 09:46:02;;;;;;;;;;;;;;;;;;7370217;19;1814;-75
2023/01/22 09:48:30;;;;;;;;;;;;;;;;;;7371285;19;812;-74
2023/01/22 09:50:58;;;;;;;;;;;;;;;;;;7371488;19;855;-74
2023/01/22 09:53:26;;;;;;;;;;;;;;;;;;7370920;19;800;-74
2023/01/22 09:55:54;;;;;;;;;;;;;;;;;;7367611;19;1400;-75
2023/01/22 09:58:23;;;;;;;;;;;;;;;;;;7370485;19;1510;-74
2023/01/22 10:00:51;;;;;;;;;;;;;;;;;;7370596;19;805;-74
2023/01/22 10:03:19;;;;;;;;;;;;;;;;;;7372609;19;839;-76
2023/01/22 10:05:47;;;;;;;;;;;;;;;;;;7368122;19;1319;-77
2023/01/22 10:08:15;;;;;;;;;;;;;;;;;;7366843;19;1845;-75
2023/01/22 10:10:43;;;;;;;;;;;;;;;;;;7369938;19;1333;-74
2023/01/22 10:13:12;;;;;;;;;;;;;;;;;;7370998;19;838;-75
2023/01/22 10:15:40;;;;;;;;;;;;;;;;;;7368441;19;1385;-75
2023/01/22 10:18:08;;;;;;;;;;;;;;;;;;7373849;19;807;-75
2023/01/22 10:20:36;;;;;;;;;;;;;;;;;;7376536;19;884;-75
2023/01/22 10:23:04;;;;;;;;;;;;;;;;;;7375135;19;854;-76
2023/01/22 10:25:32;;;;;;;;;;;;;;;;;;7370198;19;1363;-75
2023/01/22 10:28:03;;;;;;;;;;;;;;;;;;7370456;19;1825;-74
2023/01/22 10:30:31;;;;;;;;;;;;;;;;;;7379006;19;572;-74
2023/01/22 10:32:59;;;;;;;;;;;;;;;;;;7379097;19;1860;-76
2023/01/22 10:35:29;;;;;;;;;;;;;;;;;;7372105;19;1318;-76
2023/01/22 10:38:04;;;;;;;;;;;;;;;;;;7377719;19;1170;-76
2023/01/22 10:40:33;;;;;;;;;;;;;;;;;;7371325;19;739;-73
2023/01/22 10:43:01;;;;;;;;;;;;;;;;;;7370043;19;868;-74
2023/01/22 10:45:29;;;;;;;;;;;;;;;;;;7367217;19;1334;-74
2023/01/22 10:47:57;;;;;;;;;;;;;;;;;;7367688;19;1869;-76
2023/01/22 10:50:25;;;;;;;;;;;;;;;;;;7369141;19;874;-74
2023/01/22 10:52:53;;;;;;;;;;;;;;;;;;7370295;19;1663;-74
2023/01/22 10:55:22;;;;;;;;;;;;;;;;;;7365761;19;1354;-73
2023/01/22 10:57:50;;;;;;;;;;;;;;;;;;7368154;19;858;-75
2023/01/22 11:00:18;;;;;;;;;;;;;;;;;;7368813;19;867;-75
2023/01/22 11:02:46;;;;;;;;;;;;;;;;;;7369021;19;825;-75
2023/01/22 11:05:14;;;;;;;;;;;;;;;;;;7366766;19;1290;-75
2023/01/22 11:07:43;;;;;;;;;;;;;;;;;;7366460;19;1834;-75
2023/01/22 11:10:11;;;;;;;;;;;;;;;;;;7366754;19;798;-76
2023/01/22 11:12:39;;;;;;;;;;;;;;;;;;7369001;19;812;-76
2023/01/22 11:15:07;;;;;;;;;;;;;;;;;;7366895;19;1290;-75
2023/01/22 11:17:35;;;;;;;;;;;;;;;;;;7366839;19;1477;-76
2023/01/22 11:20:03;;;;;;;;;;;;;;;;;;7369575;19;745;-74
2023/01/22 11:22:32;;;;;;;;;;;;;;;;;;7371487;19;831;-77
2023/01/22 11:25:00;;;;;;;;;;;;;;;;;;7371871;19;1378;-75
2023/01/22 11:27:28;;;;;;;;;;;;;;;;;;7368690;19;1844;-75
2023/01/22 11:29:57;;;;;;;;;;;;;;;;;;7368147;19;1509;-75
2023/01/22 11:32:26;;;;;;;;;;;;;;;;;;7374546;19;1600;-75
2023/01/22 11:34:54;;;;;;;;;;;;;;;;;;7367562;19;1335;-75
2023/01/22 11:37:23;;;;;;;;;;;;;;;;;;7375405;19;880;-77
2023/01/22 11:40:00;;;;;;;;;;;;;;;;;;7376004;19;918;-76
2023/01/22 11:42:28;;;;;;;;;;;;;;;;;;7379659;19;579;-76
2023/01/22 11:44:58;;;;;;;;;;;;;;;;;;7372105;19;1679;-76
2023/01/22 11:47:28;;;;;;;;;;;;;;;;;;7371770;19;1855;-74
2023/01/22 11:49:56;;;;;;;;;;;;;;;;;;7370263;19;847;-75
2023/01/22 11:52:25;;;;;;;;;;;;;;;;;;7378238;19;778;-75
2023/01/22 11:54:57;;;;;;;;;;;;;;;;;;7374978;19;1291;-77
2023/01/22 11:57:26;;;;;;;;;;;;;;;;;;7384466;19;932;-74
2023/01/22 12:02:36;;;;;;;;;;;;;;;;;;7383582;19;1521;-77
2023/01/22 12:05:15;;;;;;;;;;;;;;;;;;7376684;19;1411;-75
2023/01/22 12:07:48;;;;;;;;;;;;;;;;;;7373905;19;1830;-73
2023/01/22 12:10:16;;;;;;;;;;;;;;;;;;7372139;19;735;-77
2023/01/22 12:12:46;;;;;;;;;;;;;;;;;;7372471;19;1031;-77
2023/01/22 12:15:14;;;;;;;;;;;;;;;;;;7375826;19;1319;-74
2023/01/22 12:17:43;;;;;;;;;;;;;;;;;;7375627;19;1102;-76
2023/01/22 12:20:11;;;;;;;;;;;;;;;;;;7379416;19;1829;-74
2023/01/22 12:22:39;;;;;;;;;;;;;;;;;;7377217;19;1504;-75
2023/01/22 12:25:07;;;;;;;;;;;;;;;;;;7374192;19;1291;-77
2023/01/22 12:27:36;;;;;;;;;;;;;;;;;;7373124;19;1849;-74
2023/01/22 12:30:04;;;;;;;;;;;;;;;;;;7367579;19;818;-75
2023/01/22 12:32:32;;;;;;;;;;;;;;;;;;7366945;19;823;-74
2023/01/22 12:35:00;;;;;;;;;;;;;;;;;;7366120;19;1693;-73
2023/01/22 12:37:28;;;;;;;;;;;;;;;;;;7367322;19;732;-73
2023/01/22 12:39:56;;;;;;;;;;;;;;;;;;7368751;19;648;-77
2023/01/22 12:42:24;;;;;;;;;;;;;;;;;;7367450;19;839;-75
2023/01/22 12:44:53;;;;;;;;;;;;;;;;;;7364715;19;1295;-73
2023/01/22 12:47:21;;;;;;;;;;;;;;;;;;7365534;19;1805;-72
2023/01/22 12:49:49;;;;;;;;;;;;;;;;;;7363634;19;804;-73
2023/01/22 12:52:17;;;;;;;;;;;;;;;;;;7368432;19;867;-75
2023/01/22 12:54:45;;;;;;;;;;;;;;;;;;7376189;19;1286;-75
2023/01/22 12:57:14;;;;;;;;;;;;;;;;;;7372670;19;864;-74
2023/01/22 12:59:42;;;;;;;;;;;;;;;;;;7371295;19;807;-74
2023/01/22 13:02:10;;;;;;;;;;;;;;;;;;7373340;19;1594;-76
2023/01/22 13:04:38;;;;;;;;;;;;;;;;;;7371067;19;1321;-74
2023/01/22 13:07:06;;;;;;;;;;;;;;;;;;7370908;19;1853;-75
2023/01/22 13:09:35;;;;;;;;;;;;;;;;;;7371008;19;815;-75
2023/01/22 13:12:03;;;;;;;;;;;;;;;;;;7370692;19;929;-75
2023/01/22 13:14:32;;;;;;;;;;;;;;;;;;7371446;19;1208;-74
2023/01/22 13:17:02;;;;;;;;;;;;;;;;;;7371388;19;934;-75
2023/01/22 13:19:31;;;;;;;;;;;;;;;;;;7372107;19;919;-75
2023/01/22 13:21:59;;;;;;;;;;;;;;;;;;7375009;19;1608;-75
2023/01/22 13:24:27;;;;;;;;;;;;;;;;;;7371195;19;1326;-75
2023/01/22 13:26:55;;;;;;;;;;;;;;;;;;7370566;19;1846;-74
2023/01/22 13:29:24;;;;;;;;;;;;;;;;;;7371970;19;854;-74
2023/01/22 13:31:52;;;;;;;;;;;;;;;;;;7374250;19;1541;-75
2023/01/22 13:34:20;;;;;;;;;;;;;;;;;;7371651;19;1334;-75
2023/01/22 13:36:48;;;;;;;;;;;;;;;;;;7371520;19;843;-75
2023/01/22 13:39:16;;;;;;;;;;;;;;;;;;7375034;19;1569;-74
2023/01/22 13:41:44;;;;;;;;;;;;;;;;;;7371339;19;833;-75
2023/01/22 13:44:12;;;;;;;;;;;;;;;;;;7370662;19;1271;-76
2023/01/22 13:46:41;;;;;;;;;;;;;;;;;;7371352;19;886;-75
2023/01/22 13:49:09;;;;;;;;;;;;;;;;;;7369605;19;1851;-75
2023/01/22 13:51:37;;;;;;;;;;;;;;;;;;7371193;19;803;-74
2023/01/22 13:54:05;;;;;;;;;;;;;;;;;;7371350;19;1279;-75
2023/01/22 13:56:33;;;;;;;;;;;;;;;;;;7370550;19;852;-74
2023/01/22 13:59:01;;;;;;;;;;;;;;;;;;7373075;19;876;-76
2023/01/22 14:01:30;;;;;;;;;;;;;;;;;;7370420;19;1439;-76
2023/01/22 14:03:58;;;;;;;;;;;;;;;;;;7370266;19;1338;-74
2023/01/22 14:06:26;;;;;;;;;;;;;;;;;;7371734;19;843;-75
2023/01/22 14:08:54;;;;;;;;;;;;;;;;;;7367913;19;1853;-75
2023/01/22 14:11:22;;;;;;;;;;;;;;;;;;7372333;19;823;-75
2023/01/22 14:13:51;;;;;;;;;;;;;;;;;;7370846;19;1280;-76
2023/01/22 14:16:19;;;;;;;;;;;;;;;;;;7373335;19;1498;-75
2023/01/22 14:18:47;;;;;;;;;;;;;;;;;;7371217;19;756;-75
2023/01/22 14:21:15;;;;;;;;;;;;;;;;;;7372926;19;724;-76
2023/01/22 14:23:45;;;;;;;;;;;;;;;;;;7371474;19;1334;-76
2023/01/22 14:26:13;;;;;;;;;;;;;;;;;;7372581;19;870;-76
2023/01/22 14:28:41;;;;;;;;;;;;;;;;;;7370478;19;1834;-75
2023/01/22 14:31:09;;;;;;;;;;;;;;;;;;7372179;19;807;-75
2023/01/22 14:33:37;;;;;;;;;;;;;;;;;;7372106;19;1306;-75
2023/01/22 14:36:05;;;;;;;;;;;;;;;;;;7372764;19;835;-75
2023/01/22 14:38:33;;;;;;;;;;;;;;;;;;7370646;19;733;-75
2023/01/22 14:41:02;;;;;;;;;;;;;;;;;;7372045;19;804;-76
2023/01/22 14:43:30;;;;;;;;;;;;;;;;;;7372459;19;1077;-76
2023/01/22 14:45:58;;;;;;;;;;;;;;;;;;7369834;19;814;-75
2023/01/22 14:48:26;;;;;;;;;;;;;;;;;;7370668;19;1841;-76
2023/01/22 14:50:54;;;;;;;;;;;;;;;;;;7372588;19;810;-76
2023/01/22 14:53:22;;;;;;;;;;;;;;;;;;7372450;19;820;-75
2023/01/22 14:55:51;;;;;;;;;;;;;;;;;;7370411;19;1232;-75
2023/01/22 14:58:19;;;;;;;;;;;;;;;;;;7375277;19;1725;-76
2023/01/22 15:00:47;;;;;;;;;;;;;;;;;;7397250;19;856;-76
2023/01/22 15:03:15;;;;;;;;;;;;;;;;;;7391494;19;1220;-75
2023/01/22 15:05:44;;;;;;;;;;;;;;;;;;7382743;19;1274;-75
2023/01/22 15:08:12;;;;;;;;;;;;;;;;;;7383842;19;1873;-75
2023/01/22 15:10:40;;;;;;;;;;;;;;;;;;7384783;19;919;-75
2023/01/22 15:13:08;;;;;;;;;;;;;;;;;;7388782;19;755;-75
2023/01/22 15:15:36;;;;;;;;;;;;;;;;;;7383395;19;1275;-74
2023/01/22 15:18:07;;;;;;;;;;;;;;;;;;7380576;19;1435;-75
2023/01/22 15:20:35;;;;;;;;;;;;;;;;;;7384020;19;819;-75
2023/01/22 15:23:03;;;;;;;;;;;;;;;;;;7382077;19;971;-75
2023/01/22 15:25:33;;;;;;;;;;;;;;;;;;7378625;19;1534;-74
2023/01/22 15:28:01;;;;;;;;;;;;;;;;;;7379289;19;1818;-76
2023/01/22 15:30:29;;;;;;;;;;;;;;;;;;7382987;19;1585;-77
2023/01/22 15:32:58;;;;;;;;;;;;;;;;;;7377415;19;845;-77
2023/01/22 15:35:26;;;;;;;;;;;;;;;;;;7369066;19;1274;-78
2023/01/22 15:37:54;;;;;;;;;;;;;;;;;;7374875;19;862;-76
2023/01/22 15:40:22;;;;;;;;;;;;;;;;;;7372694;19;820;-76
2023/01/22 15:42:50;;;;;;;;;;;;;;;;;;7372673;19;867;-76
2023/01/22 15:45:18;;;;;;;;;;;;;;;;;;7368064;19;1330;-77
2023/01/22 15:47:47;;;;;;;;;;;;;;;;;;7370984;19;1853;-76
2023/01/22 15:50:18;;;;;;;;;;;;;;;;;;7372316;19;785;-76
2023/01/22 15:52:47;;;;;;;;;;;;;;;;;;7371684;19;612;-77
2023/01/22 15:55:15;;;;;;;;;;;;;;;;;;7368252;19;1426;-76
2023/01/22 15:57:43;;;;;;;;;;;;;;;;;;7366302;19;878;-77
2023/01/22 16:00:12;;;;;;;;;;;;;;;;;;7368325;19;876;-77
2023/01/22 16:02:40;;;;;;;;;;;;;;;;;;7368756;19;892;-77
2023/01/22 16:05:08;;;;;;;;;;;;;;;;;;7365629;19;1275;-76
2023/01/22 16:07:36;;;;;;;;;;;;;;;;;;7365448;19;800;-76
2023/01/22 16:10:05;;;;;;;;;;;;;;;;;;7366193;19;1842;-76
2023/01/22 16:12:33;;;;;;;;;;;;;;;;;;7367175;19;823;-76
2023/01/22 16:15:01;;;;;;;;;;;;;;;;;;7368061;19;1431;-76
2023/01/22 16:17:30;;;;;;;;;;;;;;;;;;7367771;19;824;-77
2023/01/22 16:19:58;;;;;;;;;;;;;;;;;;7367538;19;847;-77
2023/01/22 16:22:26;;;;;;;;;;;;;;;;;;7367234;19;826;-77
2023/01/22 16:24:54;;;;;;;;;;;;;;;;;;7365807;19;1246;-77
2023/01/22 16:27:23;;;;;;;;;;;;;;;;;;7366975;19;796;-77
2023/01/22 16:29:51;;;;;;;;;;;;;;;;;;7362449;19;1861;-77
2023/01/22 16:32:19;;;;;;;;;;;;;;;;;;7369590;19;1480;-77
2023/01/22 16:34:47;;;;;;;;;;;;;;;;;;7365855;19;1698;-77
2023/01/22 16:37:15;;;;;;;;;;;;;;;;;;7367476;19;796;-77
2023/01/22 16:39:43;;;;;;;;;;;;;;;;;;7366873;19;819;-77
2023/01/22 16:42:12;;;;;;;;;;;;;;;;;;7367393;19;848;-77
2023/01/22 16:44:40;;;;;;;;;;;;;;;;;;7365085;19;1275;-78
2023/01/22 16:47:08;;;;;;;;;;;;;;;;;;7368048;19;792;-78
2023/01/22 16:49:36;;;;;;;;;;;;;;;;;;7363610;19;1833;-79
2023/01/22 16:52:05;;;;;;;;;;;;;;;;;;7365947;19;808;-77
2023/01/22 16:54:33;;;;;;;;;;;;;;;;;;7367409;19;1350;-78
2023/01/22 16:57:01;;;;;;;;;;;;;;;;;;7369607;19;855;-79
2023/01/22 16:59:30;;;;;;;;;;;;;;;;;;7367155;19;934;-76
2023/01/22 17:01:58;;;;;;;;;;;;;;;;;;7368527;19;816;-75
2023/01/22 17:04:26;;;;;;;;;;;;;;;;;;7364284;19;1346;-77
2023/01/22 17:06:54;;;;;;;;;;;;;;;;;;7365834;19;795;-76
2023/01/22 17:09:22;;;;;;;;;;;;;;;;;;7364964;19;1842;-75
2023/01/22 17:11:50;;;;;;;;;;;;;;;;;;7367036;19;820;-76
2023/01/22 17:14:19;;;;;;;;;;;;;;;;;;7366673;19;1456;-76
2023/01/22 17:16:47;;;;;;;;;;;;;;;;;;7366052;19;697;-78
2023/01/22 17:19:15;;;;;;;;;;;;;;;;;;7363692;19;866;-77
2023/01/22 17:21:43;;;;;;;;;;;;;;;;;;7364955;19;800;-77
2023/01/22 17:24:11;;;;;;;;;;;;;;;;;;7364728;19;1263;-77
2023/01/22 17:26:40;;;;;;;;;;;;;;;;;;7367606;19;879;-77
2023/01/22 17:29:09;;;;;;;;;;;;;;;;;;7365059;19;1845;-79
2023/01/22 17:31:37;;;;;;;;;;;;;;;;;;7366316;19;827;-77
2023/01/22 17:34:07;;;;;;;;;;;;;;;;;;7365331;19;1266;-77